sensor_id;sensor_type;location;lat;lon;timestamp;P1;durP1;ratioP1;P2;durP2;ratioP2
41293;SDS011;27037;52.010;4.446;2022-11-20T00:00:00;26.05;;;13.70;;
41293;SDS011;27037;52.010;4.446;2022-11-20T00:02:26;28.27;;;14.18;;
41293;SDS011;27037;52.010;4.446;2022-11-20T00:04:51;26.40;;;14.38;;
41293;SDS011;27037;52.010;4.446;2022-11-20T00:07:17;24.48;;;13.40;;
41293;SDS011;27037;52.010;4.446;2022-11-20T00:09:42;25.85;;;14.65;;
41293;SDS011;27037;52.010;4.446;2022-11-20T00:12:08;27.33;;;13.70;;
41293;SDS011;27037;52.010;4.446;2022-11-20T00:14:33;24.65;;;13.90;;
41293;SDS011;27037;52.010;4.446;2022-11-20T00:16:59;26.88;;;14.38;;
41293;SDS011;27037;52.010;4.446;2022-11-20T00:19:25;25.08;;;14.23;;
41293;SDS011;27037;52.010;4.446;2022-11-20T00:21:50;24.95;;;13.68;;
41293;SDS011;27037;52.010;4.446;2022-11-20T00:24:18;26.73;;;14.82;;
41293;SDS011;27037;52.010;4.446;2022-11-20T00:26:44;24.27;;;13.95;;
41293;SDS011;27037;52.010;4.446;2022-11-20T00:29:09;26.35;;;14.50;;
41293;SDS011;27037;52.010;4.446;2022-11-20T00:31:35;25.20;;;14.02;;
41293;SDS011;27037;52.010;4.446;2022-11-20T00:34:01;25.67;;;14.50;;
41293;SDS011;27037;52.010;4.446;2022-11-20T00:36:27;24.55;;;13.88;;
41293;SDS011;27037;52.010;4.446;2022-11-20T00:38:54;24.42;;;13.05;;
41293;SDS011;27037;52.010;4.446;2022-11-20T00:41:22;25.63;;;14.32;;
41293;SDS011;27037;52.010;4.446;2022-11-20T00:43:48;26.65;;;13.65;;
41293;SDS011;27037;52.010;4.446;2022-11-20T00:46:15;28.23;;;14.45;;
41293;SDS011;27037;52.010;4.446;2022-11-20T00:48:42;24.10;;;13.68;;
41293;SDS011;27037;52.010;4.446;2022-11-20T00:51:09;28.80;;;14.48;;
41293;SDS011;27037;52.010;4.446;2022-11-20T00:53:36;27.40;;;14.35;;
41293;SDS011;27037;52.010;4.446;2022-11-20T00:56:03;24.85;;;14.07;;
41293;SDS011;27037;52.010;4.446;2022-11-20T00:58:36;23.88;;;13.55;;
41293;SDS011;27037;52.010;4.446;2022-11-20T01:01:03;25.63;;;14.25;;
41293;SDS011;27037;52.010;4.446;2022-11-20T01:03:31;26.42;;;13.88;;
41293;SDS011;27037;52.010;4.446;2022-11-20T01:06:01;26.30;;;13.73;;
41293;SDS011;27037;52.010;4.446;2022-11-20T01:08:31;26.45;;;13.93;;
41293;SDS011;27037;52.010;4.446;2022-11-20T01:10:58;25.85;;;14.20;;
41293;SDS011;27037;52.010;4.446;2022-11-20T01:13:29;28.02;;;14.80;;
41293;SDS011;27037;52.010;4.446;2022-11-20T01:16:09;28.63;;;13.70;;
41293;SDS011;27037;52.010;4.446;2022-11-20T01:18:40;25.75;;;13.75;;
41293;SDS011;27037;52.010;4.446;2022-11-20T01:21:09;23.35;;;13.40;;
41293;SDS011;27037;52.010;4.446;2022-11-20T01:23:44;23.88;;;13.40;;
41293;SDS011;27037;52.010;4.446;2022-11-20T01:26:15;29.55;;;13.95;;
41293;SDS011;27037;52.010;4.446;2022-11-20T01:28:43;25.63;;;13.82;;
41293;SDS011;27037;52.010;4.446;2022-11-20T01:31:13;28.52;;;14.90;;
41293;SDS011;27037;52.010;4.446;2022-11-20T01:33:41;29.30;;;15.30;;
41293;SDS011;27037;52.010;4.446;2022-11-20T01:36:07;26.52;;;14.32;;
41293;SDS011;27037;52.010;4.446;2022-11-20T01:38:33;27.38;;;14.77;;
41293;SDS011;27037;52.010;4.446;2022-11-20T01:40:59;25.02;;;14.15;;
41293;SDS011;27037;52.010;4.446;2022-11-20T01:43:25;26.45;;;14.70;;
41293;SDS011;27037;52.010;4.446;2022-11-20T01:48:42;27.35;;;15.50;;
41293;SDS011;27037;52.010;4.446;2022-11-20T01:51:17;25.13;;;14.18;;
41293;SDS011;27037;52.010;4.446;2022-11-20T01:53:47;23.83;;;13.73;;
41293;SDS011;27037;52.010;4.446;2022-11-20T01:56:14;25.52;;;14.35;;
41293;SDS011;27037;52.010;4.446;2022-11-20T01:58:42;27.25;;;14.48;;
41293;SDS011;27037;52.010;4.446;2022-11-20T02:01:13;26.38;;;13.98;;
41293;SDS011;27037;52.010;4.446;2022-11-20T02:03:39;26.55;;;14.30;;
41293;SDS011;27037;52.010;4.446;2022-11-20T02:08:53;24.70;;;13.95;;
41293;SDS011;27037;52.010;4.446;2022-11-20T02:11:19;26.80;;;14.10;;
41293;SDS011;27037;52.010;4.446;2022-11-20T02:13:45;28.52;;;15.48;;
41293;SDS011;27037;52.010;4.446;2022-11-20T02:18:48;29.50;;;14.00;;
41293;SDS011;27037;52.010;4.446;2022-11-20T02:21:19;27.60;;;14.48;;
41293;SDS011;27037;52.010;4.446;2022-11-20T02:24:09;27.08;;;14.65;;
41293;SDS011;27037;52.010;4.446;2022-11-20T02:27:02;26.55;;;13.85;;
41293;SDS011;27037;52.010;4.446;2022-11-20T02:29:43;26.60;;;14.35;;
41293;SDS011;27037;52.010;4.446;2022-11-20T02:32:19;28.88;;;14.73;;
41293;SDS011;27037;52.010;4.446;2022-11-20T02:34:44;31.00;;;14.32;;
41293;SDS011;27037;52.010;4.446;2022-11-20T02:37:10;26.10;;;14.15;;
41293;SDS011;27037;52.010;4.446;2022-11-20T02:39:35;26.50;;;14.07;;
41293;SDS011;27037;52.010;4.446;2022-11-20T02:42:01;27.25;;;14.43;;
41293;SDS011;27037;52.010;4.446;2022-11-20T02:44:27;25.98;;;14.10;;
41293;SDS011;27037;52.010;4.446;2022-11-20T02:46:52;24.08;;;12.98;;
41293;SDS011;27037;52.010;4.446;2022-11-20T02:49:18;27.25;;;13.95;;
41293;SDS011;27037;52.010;4.446;2022-11-20T02:51:44;26.73;;;13.95;;
41293;SDS011;27037;52.010;4.446;2022-11-20T02:54:09;27.60;;;14.18;;
41293;SDS011;27037;52.010;4.446;2022-11-20T02:56:37;26.40;;;14.07;;
41293;SDS011;27037;52.010;4.446;2022-11-20T02:59:03;26.45;;;14.07;;
41293;SDS011;27037;52.010;4.446;2022-11-20T03:01:29;27.75;;;14.95;;
41293;SDS011;27037;52.010;4.446;2022-11-20T03:03:55;27.73;;;14.45;;
41293;SDS011;27037;52.010;4.446;2022-11-20T03:06:21;28.88;;;14.50;;
41293;SDS011;27037;52.010;4.446;2022-11-20T03:08:47;25.85;;;13.77;;
41293;SDS011;27037;52.010;4.446;2022-11-20T03:11:12;25.98;;;13.90;;
41293;SDS011;27037;52.010;4.446;2022-11-20T03:13:38;27.80;;;14.65;;
41293;SDS011;27037;52.010;4.446;2022-11-20T03:16:10;29.77;;;14.85;;
41293;SDS011;27037;52.010;4.446;2022-11-20T03:18:39;26.52;;;14.30;;
41293;SDS011;27037;52.010;4.446;2022-11-20T03:21:05;26.58;;;14.40;;
41293;SDS011;27037;52.010;4.446;2022-11-20T03:23:32;28.58;;;13.95;;
41293;SDS011;27037;52.010;4.446;2022-11-20T03:28:51;28.58;;;14.52;;
41293;SDS011;27037;52.010;4.446;2022-11-20T03:31:19;27.80;;;14.27;;
41293;SDS011;27037;52.010;4.446;2022-11-20T03:33:53;25.05;;;13.77;;
41293;SDS011;27037;52.010;4.446;2022-11-20T03:36:19;24.67;;;13.77;;
41293;SDS011;27037;52.010;4.446;2022-11-20T03:38:45;26.00;;;13.63;;
41293;SDS011;27037;52.010;4.446;2022-11-20T03:41:12;25.70;;;14.13;;
41293;SDS011;27037;52.010;4.446;2022-11-20T03:43:40;27.27;;;14.38;;
41293;SDS011;27037;52.010;4.446;2022-11-20T03:46:06;31.17;;;14.63;;
41293;SDS011;27037;52.010;4.446;2022-11-20T03:48:32;25.98;;;13.90;;
41293;SDS011;27037;52.010;4.446;2022-11-20T03:51:14;28.10;;;14.60;;
41293;SDS011;27037;52.010;4.446;2022-11-20T03:53:48;24.50;;;13.50;;
41293;SDS011;27037;52.010;4.446;2022-11-20T03:56:15;26.30;;;14.15;;
41293;SDS011;27037;52.010;4.446;2022-11-20T03:58:42;28.83;;;14.75;;
41293;SDS011;27037;52.010;4.446;2022-11-20T04:01:28;27.08;;;14.32;;
41293;SDS011;27037;52.010;4.446;2022-11-20T04:03:56;29.40;;;14.35;;
41293;SDS011;27037;52.010;4.446;2022-11-20T04:06:29;27.85;;;14.50;;
41293;SDS011;27037;52.010;4.446;2022-11-20T04:08:58;30.00;;;14.20;;
41293;SDS011;27037;52.010;4.446;2022-11-20T04:13:51;28.50;;;15.02;;
41293;SDS011;27037;52.010;4.446;2022-11-20T04:16:19;27.98;;;14.50;;
41293;SDS011;27037;52.010;4.446;2022-11-20T04:18:45;27.02;;;14.95;;
41293;SDS011;27037;52.010;4.446;2022-11-20T04:21:11;29.25;;;15.07;;
41293;SDS011;27037;52.010;4.446;2022-11-20T04:23:37;27.20;;;14.73;;
41293;SDS011;27037;52.010;4.446;2022-11-20T04:26:05;29.55;;;15.73;;
41293;SDS011;27037;52.010;4.446;2022-11-20T04:28:32;27.25;;;14.57;;
41293;SDS011;27037;52.010;4.446;2022-11-20T04:31:01;27.77;;;14.93;;
41293;SDS011;27037;52.010;4.446;2022-11-20T04:33:27;29.95;;;14.88;;
41293;SDS011;27037;52.010;4.446;2022-11-20T04:35:53;27.77;;;15.40;;
41293;SDS011;27037;52.010;4.446;2022-11-20T04:38:18;26.42;;;15.05;;
41293;SDS011;27037;52.010;4.446;2022-11-20T04:40:44;28.65;;;15.45;;
41293;SDS011;27037;52.010;4.446;2022-11-20T04:43:09;29.02;;;15.60;;
41293;SDS011;27037;52.010;4.446;2022-11-20T04:45:35;29.65;;;15.07;;
41293;SDS011;27037;52.010;4.446;2022-11-20T04:48:01;27.83;;;14.70;;
41293;SDS011;27037;52.010;4.446;2022-11-20T04:50:26;27.05;;;15.15;;
41293;SDS011;27037;52.010;4.446;2022-11-20T04:52:52;28.13;;;14.63;;
41293;SDS011;27037;52.010;4.446;2022-11-20T04:55:17;28.00;;;15.75;;
41293;SDS011;27037;52.010;4.446;2022-11-20T04:57:43;30.85;;;15.63;;
41293;SDS011;27037;52.010;4.446;2022-11-20T05:00:09;28.63;;;15.15;;
41293;SDS011;27037;52.010;4.446;2022-11-20T05:02:35;29.58;;;16.02;;
41293;SDS011;27037;52.010;4.446;2022-11-20T05:05:00;27.00;;;14.43;;
41293;SDS011;27037;52.010;4.446;2022-11-20T05:07:26;29.27;;;15.00;;
41293;SDS011;27037;52.010;4.446;2022-11-20T05:09:51;32.85;;;16.15;;
41293;SDS011;27037;52.010;4.446;2022-11-20T05:12:17;26.23;;;14.32;;
41293;SDS011;27037;52.010;4.446;2022-11-20T05:14:42;30.10;;;15.70;;
41293;SDS011;27037;52.010;4.446;2022-11-20T05:17:09;30.52;;;15.02;;
41293;SDS011;27037;52.010;4.446;2022-11-20T05:19:36;29.60;;;14.68;;
41293;SDS011;27037;52.010;4.446;2022-11-20T05:22:02;31.13;;;15.55;;
41293;SDS011;27037;52.010;4.446;2022-11-20T05:24:29;31.80;;;15.57;;
41293;SDS011;27037;52.010;4.446;2022-11-20T05:26:54;28.70;;;15.02;;
41293;SDS011;27037;52.010;4.446;2022-11-20T05:29:20;28.08;;;15.23;;
41293;SDS011;27037;52.010;4.446;2022-11-20T05:31:45;29.70;;;14.82;;
41293;SDS011;27037;52.010;4.446;2022-11-20T05:34:11;28.63;;;16.05;;
41293;SDS011;27037;52.010;4.446;2022-11-20T05:36:36;28.20;;;14.77;;
41293;SDS011;27037;52.010;4.446;2022-11-20T05:39:02;27.80;;;15.00;;
41293;SDS011;27037;52.010;4.446;2022-11-20T05:41:28;29.75;;;15.27;;
41293;SDS011;27037;52.010;4.446;2022-11-20T05:43:55;29.05;;;15.35;;
41293;SDS011;27037;52.010;4.446;2022-11-20T05:46:21;29.23;;;15.25;;
41293;SDS011;27037;52.010;4.446;2022-11-20T05:48:47;28.98;;;15.95;;
41293;SDS011;27037;52.010;4.446;2022-11-20T05:51:13;31.23;;;16.70;;
41293;SDS011;27037;52.010;4.446;2022-11-20T05:53:41;30.00;;;15.95;;
41293;SDS011;27037;52.010;4.446;2022-11-20T05:56:08;32.00;;;16.75;;
41293;SDS011;27037;52.010;4.446;2022-11-20T05:58:36;28.27;;;15.70;;
41293;SDS011;27037;52.010;4.446;2022-11-20T06:03:47;31.85;;;16.10;;
41293;SDS011;27037;52.010;4.446;2022-11-20T06:06:14;28.70;;;15.88;;
41293;SDS011;27037;52.010;4.446;2022-11-20T06:08:41;32.17;;;16.42;;
41293;SDS011;27037;52.010;4.446;2022-11-20T06:11:08;32.75;;;16.73;;
41293;SDS011;27037;52.010;4.446;2022-11-20T06:13:35;31.05;;;15.90;;
41293;SDS011;27037;52.010;4.446;2022-11-20T06:16:01;32.70;;;15.75;;
41293;SDS011;27037;52.010;4.446;2022-11-20T06:18:27;32.65;;;16.55;;
41293;SDS011;27037;52.010;4.446;2022-11-20T06:21:03;29.30;;;15.60;;
41293;SDS011;27037;52.010;4.446;2022-11-20T06:23:31;30.92;;;16.13;;
41293;SDS011;27037;52.010;4.446;2022-11-20T06:26:00;33.75;;;16.48;;
41293;SDS011;27037;52.010;4.446;2022-11-20T06:28:29;34.13;;;16.48;;
41293;SDS011;27037;52.010;4.446;2022-11-20T06:30:54;30.77;;;15.68;;
41293;SDS011;27037;52.010;4.446;2022-11-20T06:33:20;34.47;;;16.73;;
41293;SDS011;27037;52.010;4.446;2022-11-20T06:35:46;30.13;;;15.57;;
41293;SDS011;27037;52.010;4.446;2022-11-20T06:38:11;29.88;;;15.65;;
41293;SDS011;27037;52.010;4.446;2022-11-20T06:40:39;31.48;;;16.25;;
41293;SDS011;27037;52.010;4.446;2022-11-20T06:43:05;34.60;;;17.55;;
41293;SDS011;27037;52.010;4.446;2022-11-20T06:45:31;30.17;;;16.20;;
41293;SDS011;27037;52.010;4.446;2022-11-20T06:47:57;31.67;;;16.27;;
41293;SDS011;27037;52.010;4.446;2022-11-20T06:50:23;31.60;;;16.38;;
41293;SDS011;27037;52.010;4.446;2022-11-20T06:52:49;28.02;;;15.93;;
41293;SDS011;27037;52.010;4.446;2022-11-20T06:55:14;31.67;;;16.73;;
41293;SDS011;27037;52.010;4.446;2022-11-20T06:57:40;34.38;;;17.17;;
41293;SDS011;27037;52.010;4.446;2022-11-20T07:00:05;33.20;;;17.35;;
41293;SDS011;27037;52.010;4.446;2022-11-20T07:02:31;32.25;;;17.15;;
41293;SDS011;27037;52.010;4.446;2022-11-20T07:04:57;30.75;;;16.77;;
41293;SDS011;27037;52.010;4.446;2022-11-20T07:07:22;34.28;;;17.40;;
41293;SDS011;27037;52.010;4.446;2022-11-20T07:09:48;32.40;;;16.95;;
41293;SDS011;27037;52.010;4.446;2022-11-20T07:12:13;34.50;;;17.35;;
41293;SDS011;27037;52.010;4.446;2022-11-20T07:14:39;33.70;;;16.88;;
41293;SDS011;27037;52.010;4.446;2022-11-20T07:17:04;34.75;;;17.80;;
41293;SDS011;27037;52.010;4.446;2022-11-20T07:19:30;33.55;;;17.23;;
41293;SDS011;27037;52.010;4.446;2022-11-20T07:21:56;33.83;;;17.08;;
41293;SDS011;27037;52.010;4.446;2022-11-20T07:24:21;35.03;;;17.50;;
41293;SDS011;27037;52.010;4.446;2022-11-20T07:26:47;35.03;;;17.80;;
41293;SDS011;27037;52.010;4.446;2022-11-20T07:29:15;34.63;;;17.58;;
41293;SDS011;27037;52.010;4.446;2022-11-20T07:31:41;36.35;;;18.45;;
41293;SDS011;27037;52.010;4.446;2022-11-20T07:34:07;33.03;;;17.60;;
41293;SDS011;27037;52.010;4.446;2022-11-20T07:36:33;37.33;;;18.40;;
41293;SDS011;27037;52.010;4.446;2022-11-20T07:38:59;33.47;;;18.10;;
41293;SDS011;27037;52.010;4.446;2022-11-20T07:41:24;32.35;;;17.58;;
41293;SDS011;27037;52.010;4.446;2022-11-20T07:43:50;35.80;;;18.80;;
41293;SDS011;27037;52.010;4.446;2022-11-20T07:46:16;34.20;;;18.33;;
41293;SDS011;27037;52.010;4.446;2022-11-20T07:48:41;35.50;;;17.80;;
41293;SDS011;27037;52.010;4.446;2022-11-20T07:51:07;34.30;;;18.17;;
41293;SDS011;27037;52.010;4.446;2022-11-20T07:53:32;32.75;;;18.13;;
41293;SDS011;27037;52.010;4.446;2022-11-20T07:56:01;32.83;;;17.33;;
41293;SDS011;27037;52.010;4.446;2022-11-20T07:58:30;34.00;;;18.88;;
41293;SDS011;27037;52.010;4.446;2022-11-20T08:00:58;34.58;;;18.90;;
41293;SDS011;27037;52.010;4.446;2022-11-20T08:03:28;33.45;;;18.33;;
41293;SDS011;27037;52.010;4.446;2022-11-20T08:05:53;35.28;;;18.08;;
41293;SDS011;27037;52.010;4.446;2022-11-20T08:08:19;31.42;;;18.10;;
41293;SDS011;27037;52.010;4.446;2022-11-20T08:10:46;32.60;;;18.05;;
41293;SDS011;27037;52.010;4.446;2022-11-20T08:13:11;32.78;;;17.85;;
41293;SDS011;27037;52.010;4.446;2022-11-20T08:15:55;35.22;;;18.33;;
41293;SDS011;27037;52.010;4.446;2022-11-20T08:18:21;35.30;;;19.48;;
41293;SDS011;27037;52.010;4.446;2022-11-20T08:20:46;33.67;;;18.40;;
41293;SDS011;27037;52.010;4.446;2022-11-20T08:23:12;34.42;;;18.80;;
41293;SDS011;27037;52.010;4.446;2022-11-20T08:25:38;35.58;;;19.02;;
41293;SDS011;27037;52.010;4.446;2022-11-20T08:28:05;33.50;;;19.23;;
41293;SDS011;27037;52.010;4.446;2022-11-20T08:30:33;33.40;;;18.70;;
41293;SDS011;27037;52.010;4.446;2022-11-20T08:33:03;37.42;;;18.92;;
41293;SDS011;27037;52.010;4.446;2022-11-20T08:35:34;35.85;;;17.90;;
41293;SDS011;27037;52.010;4.446;2022-11-20T08:38:01;34.83;;;19.05;;
41293;SDS011;27037;52.010;4.446;2022-11-20T08:40:28;34.72;;;19.48;;
41293;SDS011;27037;52.010;4.446;2022-11-20T08:42:53;38.40;;;19.63;;
41293;SDS011;27037;52.010;4.446;2022-11-20T08:45:19;36.13;;;19.90;;
41293;SDS011;27037;52.010;4.446;2022-11-20T08:47:45;35.33;;;19.88;;
41293;SDS011;27037;52.010;4.446;2022-11-20T08:50:12;34.92;;;19.08;;
41293;SDS011;27037;52.010;4.446;2022-11-20T08:52:39;32.75;;;18.52;;
41293;SDS011;27037;52.010;4.446;2022-11-20T08:55:05;34.80;;;19.85;;
41293;SDS011;27037;52.010;4.446;2022-11-20T08:57:35;36.92;;;20.23;;
41293;SDS011;27037;52.010;4.446;2022-11-20T09:00:03;37.15;;;19.73;;
41293;SDS011;27037;52.010;4.446;2022-11-20T09:02:30;37.38;;;20.13;;
41293;SDS011;27037;52.010;4.446;2022-11-20T09:04:57;36.17;;;19.80;;
41293;SDS011;27037;52.010;4.446;2022-11-20T09:07:23;39.15;;;20.23;;
41293;SDS011;27037;52.010;4.446;2022-11-20T09:09:48;37.45;;;20.65;;
41293;SDS011;27037;52.010;4.446;2022-11-20T09:12:14;35.88;;;19.27;;
41293;SDS011;27037;52.010;4.446;2022-11-20T09:14:39;36.90;;;20.30;;
41293;SDS011;27037;52.010;4.446;2022-11-20T09:17:05;36.42;;;20.40;;
41293;SDS011;27037;52.010;4.446;2022-11-20T09:19:32;35.83;;;20.23;;
41293;SDS011;27037;52.010;4.446;2022-11-20T09:21:58;35.33;;;20.08;;
41293;SDS011;27037;52.010;4.446;2022-11-20T09:24:25;40.10;;;21.40;;
41293;SDS011;27037;52.010;4.446;2022-11-20T09:26:51;40.17;;;21.63;;
41293;SDS011;27037;52.010;4.446;2022-11-20T09:29:16;38.05;;;20.80;;
41293;SDS011;27037;52.010;4.446;2022-11-20T09:31:42;37.65;;;21.00;;
41293;SDS011;27037;52.010;4.446;2022-11-20T09:34:07;40.35;;;21.48;;
41293;SDS011;27037;52.010;4.446;2022-11-20T09:36:33;39.80;;;21.63;;
41293;SDS011;27037;52.010;4.446;2022-11-20T09:38:58;38.53;;;21.85;;
41293;SDS011;27037;52.010;4.446;2022-11-20T09:46:37;43.78;;;23.52;;
41293;SDS011;27037;52.010;4.446;2022-11-20T09:52:09;44.93;;;23.53;;
41293;SDS011;27037;52.010;4.446;2022-11-20T09:54:57;41.30;;;22.98;;
41293;SDS011;27037;52.010;4.446;2022-11-20T09:57:29;43.70;;;23.92;;
41293;SDS011;27037;52.010;4.446;2022-11-20T10:00:01;41.42;;;22.38;;
41293;SDS011;27037;52.010;4.446;2022-11-20T10:02:41;41.15;;;22.13;;
41293;SDS011;27037;52.010;4.446;2022-11-20T10:05:18;45.63;;;24.15;;
41293;SDS011;27037;52.010;4.446;2022-11-20T10:08:16;41.97;;;23.05;;
41293;SDS011;27037;52.010;4.446;2022-11-20T10:16:23;44.75;;;23.85;;
41293;SDS011;27037;52.010;4.446;2022-11-20T10:19:14;44.35;;;24.38;;
41293;SDS011;27037;52.010;4.446;2022-11-20T10:22:15;42.50;;;23.67;;
41293;SDS011;27037;52.010;4.446;2022-11-20T10:25:05;42.63;;;23.65;;
41293;SDS011;27037;52.010;4.446;2022-11-20T10:30:40;46.20;;;24.48;;
41293;SDS011;27037;52.010;4.446;2022-11-20T10:33:17;41.92;;;22.95;;
41293;SDS011;27037;52.010;4.446;2022-11-20T10:38:31;43.03;;;23.48;;
41293;SDS011;27037;52.010;4.446;2022-11-20T10:41:04;45.40;;;23.08;;
41293;SDS011;27037;52.010;4.446;2022-11-20T10:44:35;45.97;;;24.13;;
41293;SDS011;27037;52.010;4.446;2022-11-20T10:47:05;42.75;;;23.15;;
41293;SDS011;27037;52.010;4.446;2022-11-20T10:49:41;44.08;;;23.90;;
41293;SDS011;27037;52.010;4.446;2022-11-20T10:52:22;47.40;;;25.17;;
41293;SDS011;27037;52.010;4.446;2022-11-20T10:55:37;45.83;;;24.02;;
41293;SDS011;27037;52.010;4.446;2022-11-20T11:01:04;44.95;;;24.27;;
41293;SDS011;27037;52.010;4.446;2022-11-20T11:03:31;46.17;;;24.50;;
41293;SDS011;27037;52.010;4.446;2022-11-20T11:06:06;45.47;;;25.08;;
41293;SDS011;27037;52.010;4.446;2022-11-20T11:08:35;42.20;;;24.42;;
41293;SDS011;27037;52.010;4.446;2022-11-20T11:14:11;46.45;;;24.08;;
41293;SDS011;27037;52.010;4.446;2022-11-20T11:16:52;46.38;;;25.33;;
41293;SDS011;27037;52.010;4.446;2022-11-20T11:19:20;49.05;;;25.92;;
41293;SDS011;27037;52.010;4.446;2022-11-20T11:21:50;47.08;;;25.33;;
41293;SDS011;27037;52.010;4.446;2022-11-20T11:24:22;43.30;;;24.25;;
41293;SDS011;27037;52.010;4.446;2022-11-20T11:26:59;48.80;;;25.77;;
41293;SDS011;27037;52.010;4.446;2022-11-20T11:29:31;48.17;;;26.52;;
41293;SDS011;27037;52.010;4.446;2022-11-20T11:32:07;46.15;;;25.20;;
41293;SDS011;27037;52.010;4.446;2022-11-20T11:34:43;50.83;;;26.38;;
41293;SDS011;27037;52.010;4.446;2022-11-20T11:37:16;49.22;;;26.00;;
41293;SDS011;27037;52.010;4.446;2022-11-20T11:39:44;51.30;;;26.73;;
41293;SDS011;27037;52.010;4.446;2022-11-20T11:42:13;51.70;;;27.67;;
41293;SDS011;27037;52.010;4.446;2022-11-20T11:44:45;50.88;;;27.17;;
41293;SDS011;27037;52.010;4.446;2022-11-20T11:48:04;50.45;;;26.85;;
41293;SDS011;27037;52.010;4.446;2022-11-20T11:50:26;54.22;;;26.85;;
41293;SDS011;27037;52.010;4.446;2022-11-20T11:55:44;52.70;;;26.65;;
41293;SDS011;27037;52.010;4.446;2022-11-20T11:58:45;56.08;;;27.73;;
41293;SDS011;27037;52.010;4.446;2022-11-20T12:03:59;52.45;;;27.75;;
41293;SDS011;27037;52.010;4.446;2022-11-20T12:06:44;57.78;;;29.15;;
41293;SDS011;27037;52.010;4.446;2022-11-20T12:09:13;58.55;;;28.85;;
41293;SDS011;27037;52.010;4.446;2022-11-20T12:12:03;62.38;;;29.10;;
41293;SDS011;27037;52.010;4.446;2022-11-20T12:14:34;58.00;;;28.75;;
41293;SDS011;27037;52.010;4.446;2022-11-20T12:17:02;60.45;;;29.40;;
41293;SDS011;27037;52.010;4.446;2022-11-20T12:19:29;59.58;;;29.20;;
41293;SDS011;27037;52.010;4.446;2022-11-20T12:30:01;60.47;;;29.85;;
41293;SDS011;27037;52.010;4.446;2022-11-20T12:36:12;63.17;;;30.20;;
41293;SDS011;27037;52.010;4.446;2022-11-20T12:38:29;65.70;;;30.60;;
41293;SDS011;27037;52.010;4.446;2022-11-20T12:44:20;64.85;;;31.45;;
41293;SDS011;27037;52.010;4.446;2022-11-20T12:52:51;63.97;;;31.02;;
41293;SDS011;27037;52.010;4.446;2022-11-20T13:04:16;71.47;;;32.03;;
41293;SDS011;27037;52.010;4.446;2022-11-20T13:07:05;66.07;;;31.40;;
41293;SDS011;27037;52.010;4.446;2022-11-20T13:09:34;68.45;;;31.52;;
41293;SDS011;27037;52.010;4.446;2022-11-20T13:12:07;70.40;;;32.47;;
41293;SDS011;27037;52.010;4.446;2022-11-20T13:15:02;68.32;;;30.90;;
41293;SDS011;27037;52.010;4.446;2022-11-20T13:20:13;73.32;;;33.38;;
41293;SDS011;27037;52.010;4.446;2022-11-20T13:22:43;68.40;;;30.92;;
41293;SDS011;27037;52.010;4.446;2022-11-20T13:27:49;67.60;;;31.10;;
41293;SDS011;27037;52.010;4.446;2022-11-20T13:30:16;74.25;;;33.60;;
41293;SDS011;27037;52.010;4.446;2022-11-20T13:32:51;70.53;;;32.13;;
41293;SDS011;27037;52.010;4.446;2022-11-20T13:35:26;71.18;;;32.60;;
41293;SDS011;27037;52.010;4.446;2022-11-20T13:38:04;73.75;;;33.10;;
41293;SDS011;27037;52.010;4.446;2022-11-20T13:40:36;69.82;;;32.45;;
41293;SDS011;27037;52.010;4.446;2022-11-20T13:43:07;71.57;;;33.22;;
41293;SDS011;27037;52.010;4.446;2022-11-20T13:45:54;73.88;;;33.53;;
41293;SDS011;27037;52.010;4.446;2022-11-20T13:48:23;80.53;;;34.83;;
41293;SDS011;27037;52.010;4.446;2022-11-20T13:56:16;74.30;;;33.33;;
41293;SDS011;27037;52.010;4.446;2022-11-20T14:01:51;77.43;;;34.50;;
41293;SDS011;27037;52.010;4.446;2022-11-20T14:04:20;80.25;;;34.35;;
41293;SDS011;27037;52.010;4.446;2022-11-20T14:06:58;74.43;;;32.83;;
41293;SDS011;27037;52.010;4.446;2022-11-20T14:09:28;78.85;;;34.70;;
41293;SDS011;27037;52.010;4.446;2022-11-20T14:11:56;72.68;;;33.65;;
41293;SDS011;27037;52.010;4.446;2022-11-20T14:14:23;73.05;;;33.47;;
41293;SDS011;27037;52.010;4.446;2022-11-20T14:17:04;77.53;;;34.17;;
41293;SDS011;27037;52.010;4.446;2022-11-20T14:19:34;80.38;;;34.85;;
41293;SDS011;27037;52.010;4.446;2022-11-20T14:22:16;75.70;;;34.45;;
41293;SDS011;27037;52.010;4.446;2022-11-20T14:24:45;85.50;;;34.83;;
41293;SDS011;27037;52.010;4.446;2022-11-20T14:27:12;76.20;;;32.95;;
41293;SDS011;27037;52.010;4.446;2022-11-20T14:29:42;78.72;;;33.47;;
41293;SDS011;27037;52.010;4.446;2022-11-20T14:32:10;81.78;;;35.28;;
41293;SDS011;27037;52.010;4.446;2022-11-20T14:34:40;79.53;;;34.30;;
41293;SDS011;27037;52.010;4.446;2022-11-20T14:37:10;79.57;;;34.72;;
41293;SDS011;27037;52.010;4.446;2022-11-20T14:39:41;78.32;;;34.88;;
41293;SDS011;27037;52.010;4.446;2022-11-20T14:42:16;81.27;;;35.27;;
41293;SDS011;27037;52.010;4.446;2022-11-20T14:44:47;83.43;;;35.75;;
41293;SDS011;27037;52.010;4.446;2022-11-20T14:47:16;79.78;;;35.47;;
41293;SDS011;27037;52.010;4.446;2022-11-20T14:49:54;79.45;;;35.47;;
41293;SDS011;27037;52.010;4.446;2022-11-20T14:52:24;80.88;;;34.80;;
41293;SDS011;27037;52.010;4.446;2022-11-20T14:54:52;79.00;;;33.55;;
41293;SDS011;27037;52.010;4.446;2022-11-20T14:57:26;85.85;;;35.95;;
41293;SDS011;27037;52.010;4.446;2022-11-20T15:00:04;81.05;;;34.80;;
41293;SDS011;27037;52.010;4.446;2022-11-20T15:02:30;84.50;;;36.55;;
41293;SDS011;27037;52.010;4.446;2022-11-20T15:04:57;86.25;;;34.97;;
41293;SDS011;27037;52.010;4.446;2022-11-20T15:07:32;86.47;;;35.35;;
41293;SDS011;27037;52.010;4.446;2022-11-20T15:12:32;81.22;;;35.47;;
41293;SDS011;27037;52.010;4.446;2022-11-20T15:15:01;85.00;;;36.10;;
41293;SDS011;27037;52.010;4.446;2022-11-20T15:17:28;80.95;;;34.78;;
41293;SDS011;27037;52.010;4.446;2022-11-20T15:19:55;85.65;;;36.25;;
41293;SDS011;27037;52.010;4.446;2022-11-20T15:22:20;86.78;;;36.13;;
41293;SDS011;27037;52.010;4.446;2022-11-20T15:24:46;86.50;;;36.15;;
41293;SDS011;27037;52.010;4.446;2022-11-20T15:27:12;80.80;;;34.75;;
41293;SDS011;27037;52.010;4.446;2022-11-20T15:29:37;86.63;;;35.78;;
41293;SDS011;27037;52.010;4.446;2022-11-20T15:32:03;81.55;;;34.53;;
41293;SDS011;27037;52.010;4.446;2022-11-20T15:34:29;77.50;;;33.40;;
41293;SDS011;27037;52.010;4.446;2022-11-20T15:36:54;78.03;;;33.67;;
41293;SDS011;27037;52.010;4.446;2022-11-20T15:39:20;72.10;;;31.85;;
41293;SDS011;27037;52.010;4.446;2022-11-20T15:41:46;72.60;;;32.80;;
41293;SDS011;27037;52.010;4.446;2022-11-20T15:44:12;74.95;;;33.20;;
41293;SDS011;27037;52.010;4.446;2022-11-20T15:46:38;75.78;;;34.67;;
41293;SDS011;27037;52.010;4.446;2022-11-20T15:49:15;82.72;;;35.67;;
41293;SDS011;27037;52.010;4.446;2022-11-20T15:51:43;79.00;;;34.45;;
41293;SDS011;27037;52.010;4.446;2022-11-20T15:54:12;80.75;;;35.95;;
41293;SDS011;27037;52.010;4.446;2022-11-20T15:56:39;80.35;;;36.08;;
41293;SDS011;27037;52.010;4.446;2022-11-20T15:59:05;76.95;;;34.83;;
41293;SDS011;27037;52.010;4.446;2022-11-20T16:01:30;80.10;;;35.65;;
41293;SDS011;27037;52.010;4.446;2022-11-20T16:03:56;74.60;;;35.60;;
41293;SDS011;27037;52.010;4.446;2022-11-20T16:06:22;76.95;;;35.10;;